createdAt,value
2017-07-05T08:41:59.321Z,992.31
2017-07-05T08:42:59.277Z,992.33
2017-07-05T08:43:59.293Z,992.33
2017-07-05T08:44:59.292Z,992.31
2017-07-05T08:45:59.301Z,992.29
2017-07-05T08:46:59.311Z,992.32
2017-07-05T08:47:59.318Z,992.28
2017-07-05T08:48:59.327Z,992.28
2017-07-05T08:49:59.337Z,992.27
2017-07-05T08:50:59.346Z,992.32
2017-07-05T08:51:59.355Z,992.34
2017-07-05T08:52:59.367Z,992.29
2017-07-05T08:53:59.374Z,992.32
2017-07-05T08:54:59.385Z,992.28
2017-07-05T08:55:59.394Z,992.3
2017-07-05T08:57:03.809Z,992.25
2017-07-05T08:57:59.414Z,992.29
2017-07-05T08:58:59.424Z,992.3
2017-07-05T08:59:59.434Z,992.3
2017-07-05T09:00:59.445Z,992.27
2017-07-05T09:01:59.458Z,992.29
2017-07-05T09:02:59.464Z,992.27
2017-07-05T09:03:59.475Z,992.28
2017-07-05T09:04:59.527Z,992.32
2017-07-05T09:05:59.496Z,992.3
2017-07-05T09:06:59.505Z,992.29
2017-07-05T09:07:59.521Z,992.29
2017-07-05T09:08:59.529Z,992.3
2017-07-05T09:09:59.536Z,992.32
2017-07-05T09:10:59.546Z,992.25
2017-07-05T09:11:59.556Z,992.23
2017-07-05T09:12:59.570Z,992.26
2017-07-05T09:13:59.575Z,992.25
2017-07-05T09:14:59.584Z,992.22
2017-07-05T09:15:59.594Z,992.27
2017-07-05T09:16:59.604Z,992.26
2017-07-05T09:17:59.611Z,992.26
2017-07-05T09:18:59.622Z,992.19
2017-07-05T09:19:59.629Z,992.25
2017-07-05T09:20:59.639Z,992.22
2017-07-05T09:21:59.645Z,992.21
2017-07-05T09:22:59.653Z,992.19
2017-07-05T09:23:59.662Z,992.17
2017-07-05T09:24:59.679Z,992.21
2017-07-05T15:50:11.085Z,990.64
2017-07-05T15:51:10.007Z,990.62
2017-07-05T15:52:10.012Z,990.57
2017-07-05T15:53:10.015Z,990.56
2017-07-05T15:54:10.020Z,990.58
2017-07-05T15:55:10.494Z,990.63
2017-07-05T15:56:10.032Z,990.62
2017-07-05T15:57:10.040Z,990.59
2017-07-05T15:58:10.044Z,990.54
2017-07-05T15:59:10.052Z,990.54
2017-07-05T16:00:10.515Z,990.52
2017-07-05T16:01:10.064Z,990.52
2017-07-05T16:02:10.071Z,990.51
2017-07-05T16:03:10.085Z,990.49
2017-07-05T16:04:10.087Z,990.53
2017-07-05T16:05:10.547Z,990.55
2017-07-05T16:06:10.100Z,990.58
2017-07-05T16:07:10.115Z,990.5
2017-07-05T16:08:10.116Z,990.48
2017-07-05T16:09:10.120Z,990.46
2017-07-05T16:10:10.630Z,990.48
2017-07-05T16:11:10.140Z,990.49
2017-07-05T16:12:10.151Z,990.46
2017-07-05T16:13:10.153Z,990.47
2017-07-05T16:14:10.169Z,990.5
2017-07-05T16:15:10.569Z,990.48
2017-07-05T16:16:10.172Z,990.53
2017-07-05T16:17:10.181Z,990.51
2017-07-05T16:18:10.190Z,990.48
2017-07-05T16:19:10.195Z,990.5
2017-07-05T16:20:10.615Z,990.52
2017-07-05T16:21:10.211Z,990.52
2017-07-05T16:22:10.217Z,990.53
2017-07-05T16:23:10.227Z,990.5
2017-07-05T16:24:10.235Z,990.5
2017-07-05T16:25:10.635Z,990.49
2017-07-05T16:26:10.247Z,990.49
2017-07-05T16:27:10.255Z,990.5
2017-07-05T16:28:10.263Z,990.5
2017-07-05T16:29:10.271Z,990.48
2017-07-05T16:30:10.687Z,990.48
2017-07-05T16:31:10.284Z,990.46
2017-07-05T16:32:10.291Z,990.46
2017-07-05T16:33:10.299Z,990.5
2017-07-05T16:34:10.306Z,990.48
2017-07-05T16:35:10.717Z,990.48
2017-07-05T16:36:10.322Z,990.45
2017-07-05T16:37:10.328Z,990.45
2017-07-05T16:38:10.341Z,990.43
2017-07-05T16:39:10.344Z,990.42
2017-07-05T16:40:10.821Z,990.47
2017-07-05T16:41:10.358Z,990.45
2017-07-05T16:42:10.367Z,990.42
2017-07-05T16:43:10.374Z,990.4
2017-07-05T16:44:10.388Z,990.44
2017-07-05T16:45:10.698Z,990.43
2017-07-05T16:46:10.396Z,990.39
2017-07-05T16:47:10.403Z,990.41
2017-07-05T16:48:10.418Z,990.36
2017-07-05T16:49:10.426Z,990.4
2017-07-05T16:50:10.679Z,990.35
2017-07-05T16:51:10.449Z,990.37
2017-07-05T16:52:10.450Z,990.41
2017-07-05T16:53:10.447Z,990.43
2017-07-05T16:54:10.469Z,990.37
2017-07-05T16:55:10.987Z,990.38
2017-07-05T16:56:10.473Z,990.38
2017-07-05T16:57:10.480Z,990.4
2017-07-05T16:58:10.484Z,990.37
2017-07-05T16:59:10.493Z,990.4
2017-07-05T17:00:10.733Z,990.37
2017-07-05T17:01:10.505Z,990.38
2017-07-05T17:02:10.517Z,990.4
2017-07-05T17:03:10.522Z,990.43
2017-07-05T17:04:10.606Z,990.48
2017-07-05T17:05:10.620Z,990.41
2017-07-05T17:06:10.751Z,990.41
2017-07-05T17:07:10.549Z,990.42
2017-07-05T17:08:10.559Z,990.39
2017-07-05T17:09:10.568Z,990.4
2017-07-05T17:10:10.930Z,990.37
2017-07-05T17:11:10.580Z,990.39
2017-07-05T17:12:10.588Z,990.36
2017-07-05T17:13:10.593Z,990.36
2017-07-05T17:14:10.604Z,990.35
2017-07-05T17:15:10.865Z,990.36
2017-07-05T17:16:10.619Z,990.37
2017-07-05T17:17:10.622Z,990.43
2017-07-05T17:18:10.629Z,990.43
2017-07-05T17:19:10.640Z,990.38
2017-07-05T17:20:10.960Z,990.4
2017-07-05T17:21:14.006Z,990.44
2017-07-05T17:22:10.658Z,990.43
2017-07-05T17:23:10.667Z,990.44
2017-07-05T17:24:10.672Z,990.46
2017-07-05T17:25:11.039Z,990.45
2017-07-05T17:26:10.690Z,990.47
2017-07-05T17:27:10.694Z,990.43
2017-07-05T17:28:10.701Z,990.48
2017-07-05T17:29:10.708Z,990.47
2017-07-05T17:30:11.070Z,990.44
2017-07-05T17:31:10.723Z,990.47
2017-07-05T17:32:10.738Z,990.42
2017-07-05T17:33:10.772Z,990.39
2017-07-05T17:34:10.749Z,990.41
2017-07-05T17:35:11.065Z,990.42
2017-07-05T17:36:10.764Z,990.43
2017-07-05T17:37:10.764Z,990.46
2017-07-05T17:38:10.772Z,990.46
2017-07-05T17:45:43.823Z,990.45
2017-07-05T17:46:43.998Z,990.47
2017-07-05T17:47:43.979Z,990.42
2017-07-05T17:48:43.980Z,990.44
2017-07-05T17:49:43.952Z,990.45
2017-07-05T17:50:45.902Z,990.42
2017-07-05T17:51:43.682Z,990.45
2017-07-05T17:52:43.735Z,990.47
2017-07-05T17:53:43.678Z,990.48
2017-07-05T17:54:43.743Z,990.5
2017-07-05T17:55:43.752Z,990.47
2017-07-05T17:56:43.763Z,990.46
2017-07-05T17:57:43.766Z,990.44
2017-07-05T17:58:43.669Z,990.48
2017-07-05T17:59:43.803Z,990.44
2017-07-05T18:00:43.877Z,990.45
2017-07-05T18:01:43.828Z,990.46
2017-07-05T18:02:43.795Z,990.45
2017-07-05T18:03:43.925Z,990.47
2017-07-05T18:04:43.825Z,990.46
2017-07-05T18:05:43.675Z,990.47
2017-07-05T18:06:43.696Z,990.48
2017-07-05T18:07:43.710Z,990.47
2017-07-05T18:08:43.723Z,990.48
2017-07-05T18:09:43.747Z,990.52
2017-07-05T18:10:43.735Z,990.51
2017-07-05T18:11:43.755Z,990.51
2017-07-05T18:12:43.728Z,990.46
2017-07-05T18:13:43.714Z,990.52
2017-07-05T18:14:43.756Z,990.49
2017-07-05T18:15:43.822Z,990.53
2017-07-05T18:16:43.815Z,990.48
2017-07-05T18:17:43.783Z,990.52
2017-07-05T18:18:43.738Z,990.55
2017-07-05T18:19:43.752Z,990.5
2017-07-05T18:20:43.758Z,990.53
2017-07-05T18:21:43.763Z,990.56
2017-07-05T18:22:43.771Z,990.56
2017-07-05T18:23:43.773Z,990.53
2017-07-05T18:24:43.779Z,990.52
2017-07-05T18:25:43.790Z,990.55
2017-07-05T18:26:43.792Z,990.55
2017-07-05T18:27:43.799Z,990.56
2017-07-05T18:28:43.807Z,990.57
2017-07-05T18:29:43.813Z,990.57
2017-07-05T18:30:43.823Z,990.59
2017-07-05T18:31:43.838Z,990.59
2017-07-05T18:32:43.832Z,990.64
2017-07-05T18:33:43.839Z,990.64
2017-07-05T18:34:43.847Z,990.63
2017-07-05T18:35:43.853Z,990.65
2017-07-05T18:36:43.885Z,990.61
2017-07-05T18:37:43.865Z,990.65
2017-07-05T18:38:43.872Z,990.65
2017-07-05T18:39:43.888Z,990.63
2017-07-05T18:40:43.937Z,990.64
2017-07-05T18:41:44.000Z,990.6
2017-07-05T18:42:43.917Z,990.61
2017-07-05T18:43:43.916Z,990.63
2017-07-05T18:44:43.909Z,990.62
2017-07-05T18:45:43.917Z,990.59
2017-07-05T18:46:43.928Z,990.63
2017-07-05T18:47:43.930Z,990.64
2017-07-05T18:48:43.938Z,990.63
2017-07-05T18:49:43.942Z,990.63
2017-07-05T18:50:43.950Z,990.6
2017-07-05T18:51:43.954Z,990.61
2017-07-05T18:52:43.965Z,990.56
2017-07-05T18:53:43.968Z,990.6
2017-07-05T18:54:43.985Z,990.57
2017-07-05T18:55:43.982Z,990.62
2017-07-05T18:56:44.007Z,990.63
2017-07-05T18:57:43.993Z,990.6
2017-07-05T18:58:44.003Z,990.62
2017-07-05T18:59:44.005Z,990.63
2017-07-05T19:00:44.012Z,990.63
2017-07-05T19:01:44.119Z,990.64
2017-07-05T19:02:44.024Z,990.61
2017-07-05T19:03:44.030Z,990.62
2017-07-05T19:04:44.040Z,990.63
2017-07-05T19:05:44.044Z,990.65
2017-07-05T19:06:44.049Z,990.65
2017-07-05T19:07:44.064Z,990.64
2017-07-05T19:08:44.064Z,990.65
2017-07-05T19:09:44.068Z,990.68
2017-07-05T19:10:44.073Z,990.65
2017-07-05T19:11:44.083Z,990.68
2017-07-05T19:12:44.086Z,990.64
2017-07-05T19:13:44.093Z,990.68
2017-07-05T19:14:44.098Z,990.65
2017-07-05T19:15:44.104Z,990.63
2017-07-05T19:16:46.163Z,990.66
2017-07-05T19:17:44.115Z,990.66
2017-07-05T19:18:44.122Z,990.65
2017-07-05T19:19:44.128Z,990.69
2017-07-05T19:20:44.135Z,990.66
2017-07-05T19:21:44.140Z,990.65
2017-07-05T19:22:44.146Z,990.67
2017-07-05T19:23:44.162Z,990.64
2017-07-05T19:24:44.165Z,990.66
2017-07-05T19:25:44.165Z,990.67
2017-07-05T19:26:44.170Z,990.69
2017-07-05T19:27:44.244Z,990.71
2017-07-05T19:28:44.181Z,990.71
2017-07-05T19:29:44.193Z,990.73
2017-07-05T19:30:44.194Z,990.72
2017-07-05T19:31:44.200Z,990.76
2017-07-05T19:32:44.241Z,990.81
2017-07-05T19:33:44.214Z,990.83
2017-07-05T19:34:44.249Z,990.84
2017-07-05T19:35:44.234Z,990.84
2017-07-05T19:36:44.227Z,990.89
2017-07-05T19:37:44.236Z,990.89
2017-07-05T19:38:44.240Z,990.93
2017-07-05T19:39:44.246Z,990.92
2017-07-05T19:40:44.252Z,990.91
2017-07-05T19:41:44.258Z,990.96
2017-07-05T19:42:44.263Z,990.96
2017-07-05T19:43:44.268Z,990.97
2017-07-05T19:44:44.279Z,990.95
2017-07-05T19:45:44.284Z,990.99
2017-07-05T19:46:44.763Z,990.99
2017-07-05T19:47:44.336Z,990.98
2017-07-05T19:48:44.302Z,991.04
2017-07-05T19:49:44.305Z,991.01
2017-07-05T19:50:44.308Z,991.01
2017-07-05T19:51:44.313Z,991.05
2017-07-05T19:52:44.319Z,991.09
2017-07-05T19:53:44.322Z,991.11
2017-07-05T19:54:44.331Z,991.09
2017-07-05T19:55:44.334Z,991.08
2017-07-05T19:56:44.347Z,991.11
2017-07-05T19:57:44.346Z,991.1
2017-07-05T19:58:44.357Z,991.12
2017-07-05T19:59:44.359Z,991.17
2017-07-05T20:00:44.434Z,991.16
2017-07-05T20:01:44.368Z,991.19
2017-07-05T20:02:44.372Z,991.23
2017-07-05T20:03:44.377Z,991.23
2017-07-05T20:04:44.382Z,991.24
2017-07-05T20:05:44.389Z,991.28
2017-07-05T20:06:44.401Z,991.25
2017-07-05T20:07:44.406Z,991.29
2017-07-05T20:08:44.404Z,991.3
2017-07-05T20:09:44.409Z,991.32
2017-07-05T20:10:44.414Z,991.34
2017-07-05T20:11:44.428Z,991.32
2017-07-05T20:12:44.430Z,991.41
2017-07-05T20:13:44.430Z,991.38
2017-07-05T20:14:44.454Z,991.41
2017-07-05T20:15:44.439Z,991.38
2017-07-05T20:16:44.445Z,991.39
2017-07-05T20:17:47.703Z,991.38
2017-07-05T20:18:44.456Z,991.41
2017-07-05T20:19:44.465Z,991.36
2017-07-05T20:20:44.487Z,991.37
2017-07-05T20:21:44.470Z,991.42
2017-07-05T20:22:44.474Z,991.42
2017-07-05T20:23:44.479Z,991.42
2017-07-05T20:24:44.486Z,991.47
2017-07-05T20:25:44.491Z,991.46
2017-07-05T20:26:44.495Z,991.44
2017-07-05T20:27:44.503Z,991.42
2017-07-05T20:28:44.506Z,991.45
2017-07-05T20:29:44.511Z,991.46
2017-07-05T20:30:44.520Z,991.49
2017-07-05T20:31:44.522Z,991.5
2017-07-05T20:32:44.525Z,991.46
2017-07-05T20:33:44.569Z,991.51
2017-07-05T20:34:44.534Z,991.5
2017-07-05T20:35:44.539Z,991.49
2017-07-05T20:36:44.549Z,991.51
2017-07-05T20:37:44.550Z,991.49
2017-07-05T20:38:44.617Z,991.53
2017-07-05T20:39:44.561Z,991.51
2017-07-05T20:40:44.564Z,991.51
2017-07-05T20:41:44.569Z,991.5
2017-07-05T20:42:44.678Z,991.56
2017-07-05T20:43:44.681Z,991.56
2017-07-05T20:44:44.595Z,991.54
